Morse, Texas
Current Conditions -  °F | °C
As of 6:51 AM on Sunday 23 Nov 2014 (Local Time) from KBGD Reporting Station
Clear Clear  
Wind Chill: 46°   Ceiling: Unl
Heat Index: 49°   Visibility: 10mi
Dew Point: 22°   Wind: 7mph
Humidity: 35%   Direction: 270°W
Pressure: 29.47"   Gusts: NA
Location:  36.06°N, 101.48°W
Report Text: KBGD 231251Z AUTO 27006KT 10SM CLR 09/M06 A2947 RMK AO2 SLP965 T00941056
Loading
Personal Weather Stations






























Interactive Weather Map New forecast layout! Learn more

10-Day Weather Forecast

Advertisements
Track Severe Weather on mobile